TimeCDT,TemperatureF,Dew PointF,Humidity,Sea Level PressureIn,VisibilityMPH,Wind Direction,Wind SpeedMPH,Gust SpeedMPH,PrecipitationIn,Events,Conditions,WindDirDegrees,DateUTC
12:56 AM,43.0,29.1,58,30.20,10.0,West,5.8,-,N/A,,Scattered Clouds,280,2013-03-13 05:56:00
1:56 AM,39.9,30.0,68,30.20,10.0,Calm,Calm,-,N/A,,Scattered Clouds,0,2013-03-13 06:56:00
2:56 AM,38.8,30.0,71,30.19,10.0,Calm,Calm,-,N/A,,Partly Cloudy,0,2013-03-13 07:56:00
3:56 AM,38.8,31.1,74,30.19,10.0,NNW,6.9,-,N/A,,Clear,340,2013-03-13 08:56:00
4:56 AM,38.8,30.0,71,30.22,10.0,North,16.1,-,N/A,,Clear,360,2013-03-13 09:56:00
5:56 AM,36.0,25.2,65,30.25,10.0,NNW,9.2,-,N/A,,Clear,330,2013-03-13 10:56:00
6:56 AM,34.0,25.2,70,30.27,10.0,NW,6.9,-,N/A,,Partly Cloudy,320,2013-03-13 11:56:00
7:56 AM,36.9,25.2,63,30.30,10.0,NNW,13.8,-,N/A,,Partly Cloudy,340,2013-03-13 12:56:00
8:56 AM,37.9,25.2,60,30.31,10.0,NNW,10.4,-,N/A,,Overcast,340,2013-03-13 13:56:00
9:56 AM,37.9,25.2,60,-9999,-9999.0,North,-9999.0,-,N/A,,Unknown,0,2013-03-13 14:56:00
10:31 AM,39.2,24.8,56,30.31,10.0,North,13.8,-,0.19,,Overcast,350,2013-03-13 15:31:00
10:56 AM,41.0,24.1,51,30.36,10.0,NW,13.8,18.4,0.19,,Overcast,310,2013-03-13 15:56:00
11:56 AM,41.0,24.1,51,30.36,10.0,NW,11.5,19.6,N/A,,Mostly Cloudy,320,2013-03-13 16:56:00
12:56 PM,43.9,21.0,40,30.36,10.0,WNW,17.3,-,N/A,,Mostly Cloudy,300,2013-03-13 17:56:00
1:56 PM,45.0,23.0,42,30.35,10.0,North,17.3,21.9,N/A,,Mostly Cloudy,360,2013-03-13 18:56:00
3:56 PM,43.9,21.0,40,30.37,10.0,North,18.4,27.6,N/A,,Partly Cloudy,360,2013-03-13 20:56:00
4:56 PM,43.0,20.1,40,30.38,10.0,North,18.4,-,N/A,,Clear,360,2013-03-13 21:56:00
5:56 PM,41.0,19.0,41,30.40,10.0,North,11.5,-,N/A,,Clear,350,2013-03-13 22:56:00
6:56 PM,37.9,21.0,51,30.42,10.0,North,6.9,-,N/A,,Clear,360,2013-03-13 23:56:00
7:56 PM,36.0,21.0,55,30.43,10.0,North,8.1,-,N/A,,Clear,10,2013-03-14 00:56:00
8:56 PM,34.0,21.0,59,30.44,10.0,North,8.1,-,N/A,,Clear,10,2013-03-14 01:56:00
9:56 PM,32.0,21.0,64,-9999,10.0,North,8.1,-,N/A,,Clear,10,2013-03-14 02:56:00
10:56 PM,32.0,21.0,64,-9999,10.0,North,5.8,-,N/A,,Clear,360,2013-03-14 03:56:00
11:56 PM,29.1,21.0,72,-9999,10.0,Calm,Calm,-,N/A,,Clear,0,2013-03-14 04:56:00